createdAt,value
2023-03-22T00:02:14.462Z,9.30
2023-03-22T00:04:42.509Z,10.10
2023-03-22T00:07:09.222Z,8.70
2023-03-22T00:09:36.776Z,8.70
2023-03-22T00:12:04.135Z,7.73
2023-03-22T00:14:30.906Z,8.57
2023-03-22T00:16:57.748Z,8.47
2023-03-22T00:19:24.537Z,8.67
2023-03-22T00:21:51.581Z,8.30
2023-03-22T00:24:18.403Z,8.10
2023-03-22T00:26:47.484Z,8.07
2023-03-22T00:29:14.198Z,8.20
2023-03-22T00:31:41.478Z,9.00
2023-03-22T00:34:08.370Z,8.70
2023-03-22T00:36:37.903Z,9.00
2023-03-22T00:39:10.958Z,8.50
2023-03-22T00:41:38.211Z,8.37
2023-03-22T00:44:05.159Z,7.57
2023-03-22T00:46:31.927Z,9.30
2023-03-22T00:48:59.186Z,8.90
2023-03-22T00:51:26.179Z,9.03
2023-03-22T00:53:54.159Z,9.87
2023-03-22T00:56:23.136Z,9.00
2023-03-22T00:58:49.912Z,8.60
2023-03-22T01:01:17.466Z,8.97
2023-03-22T01:03:44.820Z,7.73
2023-03-22T01:06:12.123Z,8.80
2023-03-22T01:08:39.232Z,8.60
2023-03-22T01:11:07.459Z,9.80
2023-03-22T01:13:34.929Z,7.90
2023-03-22T01:16:01.649Z,8.13
2023-03-22T01:18:28.372Z,9.60
2023-03-22T01:20:55.663Z,8.33
2023-03-22T01:23:22.355Z,8.90
2023-03-22T01:25:49.682Z,9.33
2023-03-22T01:28:16.502Z,9.70
2023-03-22T01:30:43.462Z,8.33
2023-03-22T01:33:10.401Z,8.20
2023-03-22T01:35:37.695Z,8.50
2023-03-22T01:38:04.495Z,8.23
2023-03-22T01:40:31.311Z,8.03
2023-03-22T01:42:58.064Z,8.20
2023-03-22T01:45:35.750Z,7.37
2023-03-22T01:48:11.721Z,9.00
2023-03-22T01:50:39.264Z,7.50
2023-03-22T01:53:06.743Z,7.77
2023-03-22T01:55:34.001Z,8.50
2023-03-22T01:58:00.937Z,7.70
2023-03-22T02:00:28.140Z,8.60
2023-03-22T02:02:55.474Z,8.30
2023-03-22T02:05:24.788Z,7.70
2023-03-22T02:07:51.534Z,7.53
2023-03-22T02:10:20.839Z,8.17
2023-03-22T02:12:57.750Z,7.57
2023-03-22T02:15:27.996Z,7.80
2023-03-22T02:18:16.613Z,7.00
2023-03-22T02:21:20.779Z,7.20
2023-03-22T02:23:55.659Z,7.40
2023-03-22T02:26:47.048Z,7.03
2023-03-22T02:29:30.036Z,8.17
2023-03-22T02:32:21.221Z,7.87
2023-03-22T02:35:09.802Z,7.30
2023-03-22T02:37:36.554Z,7.53
2023-03-22T02:40:24.108Z,9.20
2023-03-22T02:42:54.146Z,8.30
2023-03-22T02:45:42.894Z,9.23
2023-03-22T02:48:10.270Z,8.37
2023-03-22T02:50:54.098Z,8.20
2023-03-22T02:53:25.348Z,7.93
2023-03-22T02:55:58.392Z,8.33
2023-03-22T02:58:39.344Z,7.83
2023-03-22T03:01:08.928Z,8.27
2023-03-22T03:03:37.756Z,9.27
2023-03-22T03:06:10.621Z,10.20
2023-03-22T03:08:37.509Z,8.73
2023-03-22T03:11:04.643Z,8.33
2023-03-22T03:13:31.374Z,8.90
2023-03-22T03:15:59.253Z,10.03
2023-03-22T03:18:26.357Z,8.83
2023-03-22T03:21:19.436Z,7.80
2023-03-22T03:23:54.734Z,8.27
2023-03-22T03:26:32.203Z,7.90
2023-03-22T03:29:02.216Z,8.03
2023-03-22T03:31:51.777Z,7.90
2023-03-22T03:34:31.944Z,8.17
2023-03-22T03:37:08.321Z,8.13
2023-03-22T03:39:37.408Z,7.77
2023-03-22T03:42:04.090Z,8.63
2023-03-22T03:44:31.115Z,8.43
2023-03-22T03:46:57.791Z,8.33
2023-03-22T03:49:24.533Z,8.20
2023-03-22T03:51:55.383Z,7.97
2023-03-22T03:54:22.241Z,8.27
2023-03-22T03:56:49.356Z,7.47
2023-03-22T03:59:16.961Z,7.30
2023-03-22T04:01:51.653Z,8.00
2023-03-22T04:04:27.188Z,8.10
2023-03-22T04:06:59.120Z,8.60
2023-03-22T04:09:27.410Z,7.67
2023-03-22T04:11:56.995Z,8.13
2023-03-22T04:14:23.993Z,9.03
2023-03-22T04:16:50.665Z,8.37
2023-03-22T04:19:17.465Z,9.20
2023-03-22T04:21:44.234Z,7.80
2023-03-22T04:24:11.405Z,8.37
2023-03-22T04:26:38.461Z,8.63
2023-03-22T04:29:05.277Z,7.20
2023-03-22T04:31:32.850Z,7.70
2023-03-22T04:34:00.459Z,8.23
2023-03-22T04:36:31.123Z,7.83
2023-03-22T04:38:58.185Z,8.93
2023-03-22T04:41:25.184Z,8.43
2023-03-22T04:43:52.335Z,8.07
2023-03-22T04:46:21.275Z,7.97
2023-03-22T04:48:48.114Z,8.87
2023-03-22T04:51:14.761Z,8.03
2023-03-22T04:53:41.442Z,8.67
2023-03-22T04:56:10.572Z,8.23
2023-03-22T04:58:40.065Z,8.30
2023-03-22T05:01:07.612Z,8.63
2023-03-22T05:03:34.390Z,8.73
2023-03-22T05:06:01.748Z,8.57
2023-03-22T05:08:29.338Z,8.90
2023-03-22T05:10:57.307Z,9.60
2023-03-22T05:13:25.549Z,9.13
2023-03-22T05:15:52.384Z,10.10
2023-03-22T05:18:24.789Z,8.87
2023-03-22T05:20:54.006Z,10.83
2023-03-22T05:23:21.211Z,8.63
2023-03-22T05:25:48.493Z,8.90
2023-03-22T05:28:15.494Z,9.57
2023-03-22T05:30:43.045Z,9.47
2023-03-22T05:33:09.901Z,10.03
2023-03-22T05:35:38.165Z,9.63
2023-03-22T05:38:05.612Z,10.67
2023-03-22T05:40:32.558Z,9.73
2023-03-22T05:42:59.294Z,10.00
2023-03-22T05:45:26.166Z,10.10
2023-03-22T05:47:53.609Z,9.00
2023-03-22T05:50:21.752Z,9.63
2023-03-22T05:52:48.799Z,9.93
2023-03-22T05:55:17.653Z,11.03
2023-03-22T05:57:44.889Z,10.27
2023-03-22T06:00:15.131Z,10.20
2023-03-22T06:02:46.214Z,10.37
2023-03-22T06:05:13.800Z,12.50
2023-03-22T06:07:40.892Z,10.80
2023-03-22T06:10:08.769Z,10.70
2023-03-22T06:12:35.821Z,11.97
2023-03-22T06:15:02.741Z,11.40
2023-03-22T06:17:29.537Z,11.63
2023-03-22T06:19:56.299Z,12.27
2023-03-22T06:22:23.428Z,12.67
2023-03-22T06:24:50.138Z,12.10
2023-03-22T06:27:18.008Z,11.17
2023-03-22T06:29:50.691Z,11.30
2023-03-22T06:32:17.742Z,12.30
2023-03-22T06:34:44.555Z,12.70
2023-03-22T06:37:11.289Z,12.30
2023-03-22T06:39:38.012Z,11.30
2023-03-22T06:42:04.754Z,11.03
2023-03-22T06:44:31.453Z,11.53
2023-03-22T06:46:58.291Z,10.47
2023-03-22T06:49:26.801Z,11.30
2023-03-22T06:51:53.901Z,10.00
2023-03-22T06:54:21.080Z,10.50
2023-03-22T06:56:48.383Z,11.13
2023-03-22T06:59:15.163Z,10.10
2023-03-22T07:01:42.002Z,10.33
2023-03-22T07:04:08.807Z,10.07
2023-03-22T07:06:35.672Z,9.33
2023-03-22T07:09:02.515Z,9.83
2023-03-22T07:11:29.273Z,9.00
2023-03-22T07:13:56.123Z,7.97
2023-03-22T07:16:22.995Z,8.77
2023-03-22T07:18:49.734Z,8.30
2023-03-22T07:21:17.033Z,8.43
2023-03-22T07:23:43.795Z,7.97
2023-03-22T07:26:10.578Z,8.50
2023-03-22T07:28:37.452Z,8.80
2023-03-22T07:31:06.039Z,8.03
2023-03-22T07:33:32.816Z,8.87
2023-03-22T07:35:59.628Z,8.50
2023-03-22T07:38:26.629Z,8.87
2023-03-22T07:40:56.652Z,8.73
2023-03-22T07:43:23.519Z,6.80
2023-03-22T07:45:50.587Z,7.37
2023-03-22T07:48:18.355Z,6.70
2023-03-22T07:50:45.238Z,7.57
2023-03-22T07:53:12.044Z,7.53
2023-03-22T07:55:38.974Z,5.93
2023-03-22T07:58:06.233Z,7.20
2023-03-22T08:00:33.111Z,6.87
2023-03-22T08:02:59.887Z,6.83
2023-03-22T08:05:26.648Z,7.20
2023-03-22T08:07:54.377Z,6.50
2023-03-22T08:10:21.570Z,6.33
2023-03-22T08:12:48.241Z,6.07
2023-03-22T08:15:14.931Z,5.57
2023-03-22T08:17:41.622Z,6.20
2023-03-22T08:20:09.182Z,6.17
2023-03-22T08:22:36.506Z,6.17
2023-03-22T08:25:04.640Z,6.10
2023-03-22T08:27:31.659Z,6.33
2023-03-22T08:29:58.926Z,6.37
2023-03-22T08:32:25.946Z,5.43
2023-03-22T08:34:52.805Z,6.00
2023-03-22T08:37:22.498Z,5.57
2023-03-22T08:39:49.225Z,5.40
2023-03-22T08:42:15.911Z,6.10
2023-03-22T08:44:42.654Z,5.90
2023-03-22T08:47:09.310Z,4.67
2023-03-22T08:49:36.443Z,4.73
2023-03-22T08:52:03.134Z,5.17
2023-03-22T08:54:33.516Z,4.57
2023-03-22T08:57:00.738Z,4.93
2023-03-22T08:59:28.184Z,4.70
2023-03-22T09:01:55.030Z,4.20
2023-03-22T09:04:21.876Z,4.23
2023-03-22T09:06:49.064Z,4.50
2023-03-22T09:09:15.857Z,4.20
2023-03-22T09:11:42.968Z,3.60
2023-03-22T09:14:10.169Z,3.47
2023-03-22T09:16:36.948Z,4.47
2023-03-22T09:19:03.758Z,3.97
2023-03-22T09:21:30.620Z,3.80
2023-03-22T09:23:57.521Z,3.10
2023-03-22T09:26:25.573Z,3.50
2023-03-22T09:28:52.349Z,3.80
2023-03-22T09:31:20.701Z,3.43
2023-03-22T09:33:47.818Z,3.30
2023-03-22T09:36:15.886Z,2.83
2023-03-22T09:38:42.787Z,2.80
2023-03-22T09:41:27.199Z,2.43
2023-03-22T09:43:57.082Z,1.27
2023-03-22T09:46:37.633Z,1.57
2023-03-22T09:49:20.126Z,1.90
2023-03-22T09:51:53.859Z,1.27
2023-03-22T09:54:37.308Z,1.30
2023-03-22T09:57:21.295Z,1.60
2023-03-22T09:59:57.074Z,1.40
2023-03-22T10:02:45.785Z,1.37
2023-03-22T10:05:13.769Z,2.30
2023-03-22T10:07:46.332Z,2.00
2023-03-22T10:10:18.124Z,2.17
2023-03-22T10:12:47.002Z,2.03
2023-03-22T10:15:16.128Z,2.13
2023-03-22T10:17:45.505Z,1.80
2023-03-22T10:20:25.948Z,2.00
2023-03-22T10:22:53.507Z,2.27
2023-03-22T10:25:22.452Z,1.70
2023-03-22T10:27:49.671Z,1.37
2023-03-22T10:30:26.817Z,1.40
2023-03-22T10:33:03.318Z,1.50
2023-03-22T10:35:30.780Z,1.20
2023-03-22T10:37:59.757Z,1.37
2023-03-22T10:40:28.618Z,1.40
2023-03-22T10:42:57.334Z,1.53
2023-03-22T10:45:27.028Z,1.60
2023-03-22T10:48:19.496Z,1.37
2023-03-22T10:50:46.364Z,1.47
2023-03-22T10:53:37.330Z,2.30
2023-03-22T10:56:04.744Z,1.70
2023-03-22T10:58:32.929Z,1.67
2023-03-22T11:01:04.830Z,2.00
2023-03-22T11:03:36.886Z,2.10
2023-03-22T11:06:07.635Z,1.70
2023-03-22T11:08:42.734Z,2.00
2023-03-22T11:11:30.537Z,2.07
2023-03-22T11:14:06.410Z,1.90
2023-03-22T11:16:33.639Z,1.63
2023-03-22T11:19:01.558Z,1.60
2023-03-22T11:21:31.090Z,1.80
2023-03-22T11:24:03.188Z,1.43
2023-03-22T11:26:34.690Z,1.47
2023-03-22T11:29:18.095Z,1.60
2023-03-22T11:31:54.311Z,1.00
2023-03-22T11:34:23.553Z,1.23
2023-03-22T11:36:59.535Z,1.30
2023-03-22T11:39:28.405Z,1.30
2023-03-22T11:42:01.510Z,1.27
2023-03-22T11:44:29.032Z,1.33
2023-03-22T11:47:00.723Z,1.70
2023-03-22T11:49:35.421Z,1.37
2023-03-22T11:52:08.379Z,1.80
2023-03-22T11:54:35.533Z,1.90
2023-03-22T11:57:06.372Z,1.73
2023-03-22T11:59:50.072Z,2.23
2023-03-22T12:02:28.010Z,1.80
2023-03-22T12:05:33.805Z,1.40
2023-03-22T12:08:12.147Z,1.50
2023-03-22T12:10:43.874Z,1.40
2023-03-22T12:13:23.882Z,1.47
2023-03-22T12:15:56.774Z,1.53
2023-03-22T12:18:38.845Z,1.33
2023-03-22T12:21:06.524Z,1.60
2023-03-22T12:23:37.006Z,1.40
2023-03-22T12:26:21.567Z,1.57
2023-03-22T12:28:59.674Z,1.47
2023-03-22T12:31:52.600Z,1.00
2023-03-22T12:34:20.379Z,1.63
2023-03-22T12:36:49.469Z,1.57
2023-03-22T12:39:27.783Z,1.90
2023-03-22T12:41:56.966Z,1.73
2023-03-22T12:44:27.465Z,1.60
2023-03-22T12:47:06.395Z,1.77
2023-03-22T12:49:40.507Z,1.60
2023-03-22T12:52:18.244Z,1.70
2023-03-22T12:54:45.493Z,2.27
2023-03-22T12:57:12.187Z,2.00
2023-03-22T12:59:38.943Z,1.77
2023-03-22T13:02:16.624Z,1.77
2023-03-22T13:04:43.339Z,1.80
2023-03-22T13:07:19.585Z,1.97
2023-03-22T13:09:47.461Z,2.20
2023-03-22T13:12:34.492Z,1.70
2023-03-22T13:15:02.165Z,1.77
2023-03-22T13:17:28.871Z,1.53
2023-03-22T13:20:08.058Z,1.63
2023-03-22T13:22:37.717Z,2.17
2023-03-22T13:25:12.540Z,1.97
2023-03-22T13:27:44.804Z,2.20
2023-03-22T13:30:32.887Z,1.80
2023-03-22T13:33:04.125Z,1.63
2023-03-22T13:35:52.668Z,1.73
2023-03-22T13:38:26.367Z,1.80
2023-03-22T13:41:09.101Z,1.90
2023-03-22T13:43:44.256Z,2.10
2023-03-22T13:46:19.990Z,1.83
2023-03-22T13:48:47.912Z,1.87
2023-03-22T13:51:35.429Z,2.20
2023-03-22T13:54:14.921Z,1.83
2023-03-22T13:56:44.686Z,1.90
2023-03-22T13:59:30.045Z,2.10
2023-03-22T14:02:15.889Z,1.90
2023-03-22T14:04:53.187Z,2.17
2023-03-22T14:07:29.201Z,1.70
2023-03-22T14:09:57.684Z,2.20
2023-03-22T14:13:04.091Z,1.50
2023-03-22T14:15:36.195Z,1.87
2023-03-22T14:18:23.055Z,1.73
2023-03-22T14:20:54.790Z,1.87
